Time;durP1;ratioP1;P1;durP2;ratioP2;P2;SDS_P1;SDS_P2;PMS_P1;PMS_P2;Temp;Humidity;BMP_temperature;BMP_pressure;BME280_temperature;BME280_humidity;BME280_pressure;Samples;Min_cycle;Max_cycle;Signal;HPM_P1;HPM_P2
2022/12/03 00:02:20;;;;;;;16.70;6.28;;;3.10;99.90;;;;;;5020439;28;20094;-77
2022/12/03 00:04:46;;;;;;;15.70;6.18;;;3.00;99.90;;;;;;5020455;28;20110;-77
2022/12/03 00:07:11;;;;;;;18.10;6.10;;;3.30;99.90;;;;;;5020370;28;20041;-78
2022/12/03 00:09:37;;;;;;;16.88;6.47;;;3.30;99.90;;;;;;5020358;28;20557;-77
2022/12/03 00:12:03;;;;;;;18.95;6.68;;;3.30;99.90;;;;;;5020750;28;20056;-77
2022/12/03 00:14:28;;;;;;;12.43;5.63;;;3.40;99.90;;;;;;5003995;28;20160;-78
2022/12/03 00:16:54;;;;;;;18.45;5.88;;;3.50;99.90;;;;;;5003837;28;20099;-77
2022/12/03 00:19:20;;;;;;;10.52;5.78;;;3.50;99.90;;;;;;5003936;28;20074;-77
2022/12/03 00:21:45;;;;;;;13.85;5.00;;;3.80;99.90;;;;;;5004338;28;20041;-78
2022/12/03 00:24:11;;;;;;;14.13;5.53;;;3.70;99.90;;;;;;5016817;28;20083;-77
2022/12/03 00:26:37;;;;;;;10.73;5.40;;;3.90;99.90;;;;;;5000766;28;20045;-77
2022/12/03 00:29:03;;;;;;;13.15;6.03;;;3.70;99.90;;;;;;5016600;28;20128;-77
2022/12/03 00:31:28;;;;;;;19.05;6.80;;;4.00;99.90;;;;;;5016716;28;20083;-77
2022/12/03 00:33:54;;;;;;;13.02;5.78;;;3.30;99.90;;;;;;5016584;28;20049;-77
2022/12/03 00:36:20;;;;;;;12.98;5.68;;;3.80;99.90;;;;;;5000254;28;20484;-77
2022/12/03 00:38:46;;;;;;;16.80;6.32;;;3.30;99.90;;;;;;5016744;28;20117;-77
2022/12/03 00:41:12;;;;;;;16.88;6.20;;;4.10;99.90;;;;;;5000131;28;20040;-77
2022/12/03 00:43:38;;;;;;;10.88;5.30;;;3.70;99.90;;;;;;4999799;28;20096;-77
2022/12/03 00:46:03;;;;;;;16.48;7.07;;;3.70;99.90;;;;;;5016363;28;20092;-76
2022/12/03 00:48:29;;;;;;;13.27;6.00;;;3.60;99.90;;;;;;5000282;28;20040;-76
2022/12/03 00:50:55;;;;;;;12.68;6.32;;;3.60;99.90;;;;;;5016283;28;20080;-77
2022/12/03 00:53:21;;;;;;;19.60;5.97;;;3.70;99.90;;;;;;4999912;28;20127;-77
2022/12/03 00:55:49;;;;;;;12.30;6.40;;;3.60;99.90;;;;;;4984338;28;20076;-77
2022/12/03 00:58:15;;;;;;;16.13;5.70;;;5.90;99.90;;;;;;5016263;28;20078;-76
2022/12/03 01:00:41;;;;;;;13.45;5.85;;;3.50;99.90;;;;;;5016050;28;20037;-77
2022/12/03 01:03:07;;;;;;;12.90;5.53;;;3.50;99.90;;;;;;4999934;28;20037;-76
2022/12/03 01:05:32;;;;;;;14.73;6.40;;;3.50;99.90;;;;;;5016275;28;20037;-77
2022/12/03 01:07:58;;;;;;;16.35;6.50;;;3.40;99.90;;;;;;5015843;28;20180;-77
2022/12/03 01:10:24;;;;;;;13.38;5.68;;;3.70;99.90;;;;;;4999596;28;20053;-77
2022/12/03 01:12:49;;;;;;;16.83;6.13;;;4.30;99.90;;;;;;5016055;28;20038;-77
2022/12/03 01:15:15;;;;;;;15.80;6.15;;;3.10;99.90;;;;;;4999472;28;20128;-77
2022/12/03 01:17:41;;;;;;;13.65;6.00;;;3.30;99.90;;;;;;5015709;28;20049;-77
2022/12/03 01:20:08;;;;;;;9.35;4.75;;;3.40;99.90;;;;;;4999387;28;20073;-77
2022/12/03 01:22:35;;;;;;;13.00;5.60;;;3.40;99.90;;;;;;5015727;28;20048;-77
2022/12/03 01:25:00;;;;;;;11.32;5.22;;;3.70;99.90;;;;;;5018876;28;20092;-77
2022/12/03 01:27:26;;;;;;;13.38;6.57;;;3.30;99.90;;;;;;5002746;28;20475;-77
2022/12/03 01:29:52;;;;;;;11.95;5.93;;;3.40;99.90;;;;;;5019173;28;20053;-77
2022/12/03 01:32:18;;;;;;;15.32;5.78;;;3.40;99.90;;;;;;5002572;28;20045;-77
2022/12/03 01:34:49;;;;;;;12.10;5.25;;;3.50;99.90;;;;;;5035236;28;20095;-77
2022/12/03 01:37:16;;;;;;;14.77;6.30;;;3.40;99.90;;;;;;5018776;28;20055;-77
2022/12/03 01:39:42;;;;;;;12.38;5.40;;;3.40;99.90;;;;;;5018843;28;20041;-77
2022/12/03 01:42:14;;;;;;;15.15;5.95;;;3.50;99.90;;;;;;5019095;28;20407;-77
2022/12/03 01:44:40;;;;;;;12.65;5.47;;;3.40;99.90;;;;;;5018864;28;20391;-77
2022/12/03 01:47:11;;;;;;;9.48;5.53;;;3.50;99.90;;;;;;5002792;28;20044;-77
2022/12/03 01:49:41;;;;;;;19.17;6.80;;;3.50;99.90;;;;;;5035061;28;20186;-77
2022/12/03 01:52:22;;;;;;;13.02;5.88;;;3.50;99.90;;;;;;5018567;28;20083;-77
2022/12/03 01:54:57;;;;;;;14.82;6.10;;;3.70;99.90;;;;;;5034365;28;20044;-77
2022/12/03 01:57:33;;;;;;;16.77;5.72;;;3.80;99.90;;;;;;5035032;28;20399;-77
2022/12/03 01:59:59;;;;;;;12.43;6.03;;;3.20;99.90;;;;;;5018523;28;20110;-77
2022/12/03 02:02:28;;;;;;;13.57;6.53;;;3.60;99.90;;;;;;5034947;28;20041;-77
2022/12/03 02:04:55;;;;;;;9.60;5.03;;;3.50;99.90;;;;;;5035066;28;20492;-78
2022/12/03 02:07:24;;;;;;;12.55;6.25;;;3.50;99.90;;;;;;5018681;28;20438;-77
2022/12/03 02:09:50;;;;;;;14.52;6.50;;;5.20;99.90;;;;;;5034835;28;20040;-77
2022/12/03 02:12:23;;;;;;;18.65;6.00;;;3.80;99.90;;;;;;5002029;28;20040;-77
2022/12/03 02:14:49;;;;;;;17.35;6.75;;;4.10;99.90;;;;;;5034736;28;20041;-77
2022/12/03 02:17:16;;;;;;;15.45;6.72;;;3.50;99.90;;;;;;5034723;28;20127;-77
2022/12/03 02:19:42;;;;;;;11.05;6.00;;;3.70;99.90;;;;;;5018302;28;20075;-77
2022/12/03 02:22:28;;;;;;;12.40;5.90;;;5.20;99.90;;;;;;5002391;28;20069;-77
2022/12/03 02:24:53;;;;;;;14.73;6.03;;;3.60;99.90;;;;;;5034396;28;20102;-77
2022/12/03 02:27:20;;;;;;;13.65;6.07;;;3.60;99.90;;;;;;5018497;28;20049;-77
2022/12/03 02:29:45;;;;;;;14.57;6.25;;;3.60;99.90;;;;;;5034601;28;20124;-77
2022/12/03 02:32:11;;;;;;;10.60;5.32;;;3.40;99.90;;;;;;5018389;28;20080;-77
2022/12/03 02:34:43;;;;;;;18.98;6.75;;;3.70;99.90;;;;;;5034522;28;20041;-77
2022/12/03 02:37:22;;;;;;;13.07;5.72;;;3.70;99.90;;;;;;5034550;28;20052;-77
2022/12/03 02:39:54;;;;;;;13.35;5.88;;;3.60;99.90;;;;;;5034499;28;20040;-77
2022/12/03 02:42:36;;;;;;;12.23;6.03;;;3.40;99.90;;;;;;5034528;28;20037;-77
2022/12/03 02:45:13;;;;;;;12.30;5.75;;;4.10;99.90;;;;;;5004040;28;20518;-77
2022/12/03 02:47:44;;;;;;;14.18;6.82;;;3.50;99.90;;;;;;5018132;28;20076;-77
2022/12/03 02:50:14;;;;;;;15.10;5.60;;;4.20;99.90;;;;;;5034704;28;20471;-77
2022/12/03 02:52:42;;;;;;;13.48;5.75;;;3.50;99.90;;;;;;5017954;28;20044;-77
2022/12/03 02:55:09;;;;;;;14.77;5.75;;;3.80;99.90;;;;;;5018004;28;20102;-78
2022/12/03 02:57:37;;;;;;;19.23;6.50;;;4.90;99.90;;;;;;5034660;28;20044;-77
2022/12/03 03:00:05;;;;;;;13.98;6.05;;;4.80;99.90;;;;;;5034663;28;20510;-77
2022/12/03 03:02:31;;;;;;;13.85;5.78;;;3.50;99.90;;;;;;5017970;28;20036;-77
2022/12/03 03:04:57;;;;;;;12.25;5.32;;;3.30;99.90;;;;;;5035438;28;20041;-77
2022/12/03 03:07:23;;;;;;;11.80;5.97;;;3.50;99.90;;;;;;5005671;28;20037;-77
2022/12/03 03:09:49;;;;;;;14.52;6.10;;;3.60;99.90;;;;;;4989007;28;20381;-77
2022/12/03 03:12:15;;;;;;;16.95;6.57;;;3.50;99.90;;;;;;5005452;28;20183;-77
2022/12/03 03:14:41;;;;;;;18.42;5.95;;;3.50;99.90;;;;;;5038087;28;20395;-78
2022/12/03 03:17:07;;;;;;;14.52;6.25;;;4.80;99.90;;;;;;5004914;28;20041;-77
2022/12/03 03:19:33;;;;;;;10.68;5.18;;;3.60;99.90;;;;;;5021358;28;20126;-77
2022/12/03 03:21:59;;;;;;;14.05;6.00;;;3.50;99.90;;;;;;4989141;28;20514;-76
2022/12/03 03:24:25;;;;;;;13.27;6.03;;;3.50;99.90;;;;;;5037700;28;20408;-76
2022/12/03 03:26:51;;;;;;;13.65;6.60;;;3.60;99.90;;;;;;5021479;28;20399;-77
2022/12/03 03:29:17;;;;;;;12.57;5.32;;;3.50;99.90;;;;;;5021517;28;20403;-77
2022/12/03 03:31:45;;;;;;;12.25;6.38;;;3.50;99.90;;;;;;5004840;28;20071;-76
2022/12/03 03:34:11;;;;;;;11.80;5.78;;;3.80;99.90;;;;;;5021300;28;20045;-76
2022/12/03 03:36:38;;;;;;;13.25;6.00;;;3.50;99.90;;;;;;5004970;28;20151;-77
2022/12/03 03:39:04;;;;;;;13.35;4.97;;;3.50;99.90;;;;;;5004668;28;20036;-77
2022/12/03 03:41:32;;;;;;;12.15;5.40;;;3.40;99.90;;;;;;5037572;28;20037;-76
2022/12/03 03:43:58;;;;;;;14.52;6.88;;;3.50;99.90;;;;;;5021596;28;20041;-77
2022/12/03 03:46:24;;;;;;;18.15;5.50;;;4.00;99.90;;;;;;5005058;28;20566;-76
2022/12/03 03:48:51;;;;;;;14.13;6.43;;;3.50;99.90;;;;;;5037498;28;20134;-76
2022/12/03 03:51:18;;;;;;;15.63;5.20;;;4.90;99.90;;;;;;5021948;28;20048;-76
2022/12/03 03:53:47;;;;;;;12.27;6.25;;;3.50;99.90;;;;;;5022044;28;20041;-76
2022/12/03 03:56:15;;;;;;;13.90;5.78;;;3.50;99.90;;;;;;5038052;28;20088;-77
2022/12/03 03:58:41;;;;;;;14.45;6.90;;;3.50;99.90;;;;;;5037985;28;20114;-77
2022/12/03 04:01:09;;;;;;;12.82;5.80;;;3.50;99.90;;;;;;5021420;28;20037;-77
2022/12/03 04:03:35;;;;;;;12.02;6.57;;;3.60;99.90;;;;;;5021811;28;20055;-77
2022/12/03 04:06:01;;;;;;;11.43;5.53;;;3.50;99.90;;;;;;5037468;28;20037;-76
2022/12/03 04:08:27;;;;;;;17.73;6.43;;;4.20;99.90;;;;;;5037787;28;20519;-76
2022/12/03 04:13:37;;;;;;;13.30;6.18;;;3.90;99.90;;;;;;5010099;28;20543;-77
2022/12/03 04:16:03;;;;;;;13.25;5.88;;;2.70;99.90;;;;;;5020722;28;20140;-76
2022/12/03 04:18:44;;;;;;;20.92;7.30;;;3.50;99.90;;;;;;5020160;28;20040;-77
2022/12/03 04:24:00;;;;;;;14.30;6.60;;;3.40;99.90;;;;;;5036472;28;20052;-76
2022/12/03 04:29:11;;;;;;;10.50;5.30;;;3.40;99.90;;;;;;5036688;28;20057;-76
2022/12/03 04:37:06;;;;;;;11.77;6.13;;;4.70;99.90;;;;;;5036518;28;20049;-77
2022/12/03 04:39:32;;;;;;;16.33;6.50;;;3.40;99.90;;;;;;5036715;28;20442;-76
2022/12/03 04:41:58;;;;;;;13.40;5.90;;;3.40;99.90;;;;;;5036309;28;20037;-76
2022/12/03 04:44:35;;;;;;;11.65;6.53;;;4.70;99.90;;;;;;5019774;28;20091;-76
2022/12/03 04:47:11;;;;;;;13.50;6.80;;;3.60;99.90;;;;;;5020100;28;20043;-77
2022/12/03 04:49:42;;;;;;;10.63;5.30;;;3.30;99.90;;;;;;5036244;28;20076;-76
2022/12/03 04:52:10;;;;;;;11.00;5.45;;;3.40;99.90;;;;;;5019926;28;20055;-77
2022/12/03 04:54:36;;;;;;;11.15;5.93;;;3.30;99.90;;;;;;5036268;28;20484;-78
2022/12/03 04:57:02;;;;;;;11.68;5.55;;;3.30;99.90;;;;;;5019668;28;20038;-76
2022/12/03 04:59:28;;;;;;;12.10;5.93;;;3.30;99.90;;;;;;5035854;28;20080;-76
2022/12/03 05:01:54;;;;;;;11.00;6.20;;;3.40;99.90;;;;;;5003066;28;20487;-77
2022/12/03 05:04:19;;;;;;;16.67;6.53;;;3.30;99.90;;;;;;4986770;28;20040;-77
2022/12/03 05:06:47;;;;;;;16.88;6.55;;;3.40;99.90;;;;;;5002927;28;20131;-77
2022/12/03 05:09:13;;;;;;;17.60;6.05;;;3.30;99.90;;;;;;5036265;28;20083;-77
2022/12/03 05:11:40;;;;;;;15.65;6.43;;;3.40;99.90;;;;;;5019485;28;20084;-76
2022/12/03 05:14:06;;;;;;;13.63;6.20;;;3.50;99.90;;;;;;5035765;28;20045;-77
2022/12/03 05:16:32;;;;;;;11.63;6.13;;;3.60;99.90;;;;;;5003214;28;20049;-77
2022/12/03 05:18:58;;;;;;;16.17;7.32;;;3.40;99.90;;;;;;5035724;28;20480;-77
2022/12/03 05:21:24;;;;;;;14.07;5.45;;;3.40;99.90;;;;;;5019490;28;20045;-77
2022/12/03 05:23:49;;;;;;;18.20;6.22;;;3.30;99.90;;;;;;5018806;28;20098;-77
2022/12/03 05:26:15;;;;;;;12.93;5.82;;;3.30;99.90;;;;;;5019118;28;20133;-76
2022/12/03 05:28:42;;;;;;;15.55;6.55;;;3.30;99.90;;;;;;5018451;28;20049;-77
2022/12/03 05:31:08;;;;;;;12.50;5.47;;;3.50;99.90;;;;;;5019097;28;20171;-76
2022/12/03 05:33:33;;;;;;;14.43;6.55;;;3.30;99.90;;;;;;5018927;28;20076;-77
2022/12/03 05:35:59;;;;;;;14.52;7.30;;;3.90;99.90;;;;;;5035272;28;20511;-77
2022/12/03 05:38:25;;;;;;;16.60;6.88;;;3.80;99.90;;;;;;5035280;28;20033;-77
2022/12/03 05:40:51;;;;;;;10.18;5.43;;;3.30;99.90;;;;;;5002443;28;20132;-76
2022/12/03 05:43:17;;;;;;;13.52;6.50;;;3.30;99.90;;;;;;5002942;28;20041;-76
2022/12/03 05:45:43;;;;;;;11.60;5.72;;;3.50;99.90;;;;;;5002996;28;20472;-77
2022/12/03 05:48:12;;;;;;;15.52;6.55;;;3.40;99.90;;;;;;5018850;28;20045;-76
2022/12/03 05:50:42;;;;;;;14.63;6.72;;;3.30;99.90;;;;;;5018897;28;20045;-77
2022/12/03 05:53:10;;;;;;;11.07;5.57;;;3.70;99.90;;;;;;5018911;28;20037;-76
2022/12/03 05:55:36;;;;;;;17.65;6.90;;;3.20;99.90;;;;;;5019226;28;20487;-76
2022/12/03 05:58:02;;;;;;;15.00;6.45;;;3.20;99.90;;;;;;5002150;28;20124;-76
2022/12/03 06:00:31;;;;;;;16.83;6.85;;;3.60;99.90;;;;;;5018795;28;20073;-77
2022/12/03 06:02:57;;;;;;;13.43;5.88;;;3.10;99.90;;;;;;5035061;28;20075;-76
2022/12/03 06:05:24;;;;;;;15.25;6.40;;;3.40;99.90;;;;;;5002140;28;20037;-76
2022/12/03 06:07:51;;;;;;;16.00;6.43;;;4.00;99.90;;;;;;5034878;28;20045;-76
2022/12/03 06:10:23;;;;;;;13.13;6.15;;;3.40;99.90;;;;;;5018793;28;20052;-78
2022/12/03 06:12:49;;;;;;;12.38;6.13;;;3.20;99.90;;;;;;5018305;28;20048;-77
2022/12/03 06:15:15;;;;;;;15.07;6.55;;;3.10;99.90;;;;;;5018465;28;20080;-77
2022/12/03 06:17:41;;;;;;;16.88;6.70;;;3.20;99.90;;;;;;4986059;28;20099;-76
2022/12/03 06:20:12;;;;;;;18.52;6.47;;;3.20;99.90;;;;;;5018402;28;20072;-77
2022/12/03 06:22:38;;;;;;;16.95;6.75;;;3.40;99.90;;;;;;5002964;28;20483;-77
2022/12/03 06:25:04;;;;;;;13.45;6.28;;;3.10;99.90;;;;;;5034551;28;20060;-77
2022/12/03 06:27:30;;;;;;;12.80;5.75;;;3.20;99.90;;;;;;5018327;28;20048;-77
2022/12/03 06:29:56;;;;;;;8.68;5.20;;;3.20;99.90;;;;;;5035101;28;20479;-77
2022/12/03 06:32:22;;;;;;;13.93;6.13;;;3.10;99.90;;;;;;5002121;28;20045;-77
2022/12/03 06:34:47;;;;;;;16.55;7.78;;;3.20;99.90;;;;;;5001931;28;20051;-76
2022/12/03 06:37:13;;;;;;;12.35;5.30;;;3.20;99.90;;;;;;5018191;28;20041;-79
2022/12/03 06:39:39;;;;;;;11.82;5.50;;;3.80;99.90;;;;;;5002360;28;20493;-76
2022/12/03 06:42:05;;;;;;;13.15;6.47;;;3.20;99.90;;;;;;5005986;28;20041;-76
2022/12/03 06:44:30;;;;;;;14.20;6.13;;;3.50;99.90;;;;;;5005965;28;20479;-77
2022/12/03 06:46:56;;;;;;;12.05;6.07;;;3.10;99.90;;;;;;5005731;28;20041;-78
2022/12/03 06:49:22;;;;;;;13.55;5.95;;;3.10;99.90;;;;;;5038313;28;20048;-77
2022/12/03 06:51:48;;;;;;;12.02;5.50;;;3.30;99.90;;;;;;5038319;28;20392;-77
2022/12/03 06:54:21;;;;;;;14.23;6.72;;;3.30;99.90;;;;;;5006431;28;20080;-78
2022/12/03 06:56:47;;;;;;;13.05;5.97;;;3.00;99.90;;;;;;5023634;28;20087;-75
2022/12/03 06:59:13;;;;;;;14.73;7.03;;;2.80;99.90;;;;;;5005445;28;20068;-78
2022/12/03 07:01:39;;;;;;;13.15;5.40;;;2.90;99.90;;;;;;5022321;28;20498;-83
2022/12/03 07:04:05;;;;;;;8.77;4.78;;;2.80;99.90;;;;;;5005525;28;20079;-78
2022/12/03 07:06:31;;;;;;;18.52;5.30;;;2.90;99.90;;;;;;5005676;28;20047;-78
2022/12/03 07:08:56;;;;;;;12.40;6.07;;;3.00;99.90;;;;;;5005327;28;20037;-78
2022/12/03 07:11:31;;;;;;;14.45;6.30;;;2.80;99.90;;;;;;5038022;28;20040;-79
2022/12/03 07:14:06;;;;;;;17.50;6.75;;;3.30;99.90;;;;;;5027117;28;20044;-78
2022/12/03 07:16:34;;;;;;;12.82;5.43;;;3.00;99.90;;;;;;5041434;28;20044;-81
2022/12/03 07:18:59;;;;;;;15.15;6.47;;;2.80;99.90;;;;;;5024001;28;20155;-78
2022/12/03 07:21:26;;;;;;;16.50;7.88;;;2.70;99.90;;;;;;5023665;28;20076;-80
2022/12/03 07:23:52;;;;;;;12.27;5.65;;;2.80;99.90;;;;;;5023462;28;20045;-79
2022/12/03 07:26:18;;;;;;;14.95;7.85;;;2.80;99.90;;;;;;5040185;28;20048;-78
2022/12/03 07:28:43;;;;;;;13.55;7.05;;;3.50;99.90;;;;;;5022439;28;20056;-79
2022/12/03 07:31:09;;;;;;;15.30;6.45;;;4.50;99.90;;;;;;5005973;28;20083;-77
2022/12/03 07:33:35;;;;;;;15.10;6.00;;;2.60;99.90;;;;;;5022508;28;20080;-75
2022/12/03 07:36:01;;;;;;;12.93;6.35;;;2.60;99.90;;;;;;5004785;28;20052;-78
2022/12/03 07:38:27;;;;;;;17.05;7.32;;;2.50;99.90;;;;;;5021137;28;20037;-80
2022/12/03 07:40:52;;;;;;;13.50;6.65;;;2.60;99.90;;;;;;5004814;28;20091;-80
2022/12/03 07:43:18;;;;;;;14.27;6.00;;;2.50;99.90;;;;;;5020811;28;20561;-78
2022/12/03 07:45:44;;;;;;;13.07;6.75;;;2.60;99.90;;;;;;5020625;28;20106;-82
2022/12/03 07:48:09;;;;;;;14.00;5.85;;;2.50;99.90;;;;;;5020625;28;20445;-79
2022/12/03 07:50:35;;;;;;;10.82;6.03;;;2.50;99.90;;;;;;5004220;28;20049;-81
2022/12/03 07:53:01;;;;;;;16.30;6.15;;;2.50;99.90;;;;;;5003092;28;20080;-79
2022/12/03 07:55:26;;;;;;;16.45;6.25;;;3.70;99.90;;;;;;5020540;28;20082;-78
2022/12/03 07:57:52;;;;;;;14.07;6.18;;;2.50;99.90;;;;;;5004317;28;20135;-81
2022/12/03 08:00:18;;;;;;;12.77;6.22;;;2.60;99.90;;;;;;5020795;28;20052;-79
2022/12/03 08:02:45;;;;;;;10.75;5.30;;;2.40;99.90;;;;;;5020594;28;20044;-80
2022/12/03 08:05:10;;;;;;;14.05;6.72;;;2.40;99.90;;;;;;5037016;28;20040;-81
2022/12/03 08:07:36;;;;;;;12.57;5.97;;;3.40;99.90;;;;;;5036895;28;20083;-81
2022/12/03 08:10:04;;;;;;;14.35;6.80;;;2.40;99.90;;;;;;5020620;28;20047;-82
2022/12/03 08:12:39;;;;;;;10.88;5.35;;;2.40;99.90;;;;;;5020476;28;20045;-81
2022/12/03 08:15:10;;;;;;;17.00;7.68;;;2.40;99.90;;;;;;5036982;28;20095;-78
2022/12/03 08:17:38;;;;;;;15.05;6.53;;;2.30;99.90;;;;;;5036687;28;20048;-78
2022/12/03 08:20:18;;;;;;;21.20;7.28;;;2.30;99.90;;;;;;5036755;28;20037;-80
2022/12/03 08:22:46;;;;;;;16.13;6.97;;;2.30;99.90;;;;;;5020507;28;20399;-80
2022/12/03 08:25:26;;;;;;;15.25;5.93;;;2.30;99.90;;;;;;5000521;28;20092;-81
2022/12/03 08:27:55;;;;;;;13.20;6.50;;;2.40;99.90;;;;;;5000412;28;20050;-81
2022/12/03 08:30:21;;;;;;;13.82;6.93;;;2.30;99.90;;;;;;5000718;28;20037;-81
2022/12/03 08:32:47;;;;;;;17.50;7.18;;;2.40;99.90;;;;;;5000384;28;20045;-77
2022/12/03 08:35:20;;;;;;;17.83;6.78;;;3.00;99.90;;;;;;5019726;28;20449;-79
2022/12/03 08:37:47;;;;;;;19.17;7.57;;;2.30;99.90;;;;;;5000232;28;20396;-78
2022/12/03 08:40:26;;;;;;;17.25;7.20;;;2.30;99.90;;;;;;5016520;28;20037;-78
2022/12/03 08:42:51;;;;;;;12.80;6.80;;;1.80;99.90;;;;;;5019144;28;20373;-77
2022/12/03 08:45:38;;;;;;;15.55;7.60;;;2.30;99.90;;;;;;4984778;28;20041;-80
2022/12/03 08:48:19;;;;;;;18.20;7.40;;;2.30;99.90;;;;;;5000592;28;20053;-80
2022/12/03 08:50:45;;;;;;;15.88;6.70;;;2.40;99.90;;;;;;5000014;28;20045;-79
2022/12/03 08:53:45;;;;;;;17.25;6.30;;;2.40;99.90;;;;;;5033000;28;20395;-79
2022/12/03 08:56:21;;;;;;;14.98;6.35;;;2.40;99.90;;;;;;5016300;28;20060;-79
2022/12/03 08:58:54;;;;;;;17.17;7.05;;;2.40;99.90;;;;;;4999757;28;20041;-80
2022/12/03 09:01:37;;;;;;;16.50;6.85;;;2.40;99.90;;;;;;4999874;28;20040;-80
2022/12/03 09:04:22;;;;;;;16.67;5.93;;;2.50;99.90;;;;;;5015974;28;20041;-80
2022/12/03 09:06:49;;;;;;;12.95;6.22;;;2.40;99.90;;;;;;5016102;28;20053;-80
2022/12/03 09:09:14;;;;;;;14.98;6.55;;;2.70;99.90;;;;;;4999974;28;20071;-79
2022/12/03 09:11:42;;;;;;;18.88;7.22;;;2.50;99.90;;;;;;5032450;28;20041;-79
2022/12/03 09:14:09;;;;;;;22.67;8.00;;;2.90;99.90;;;;;;5016036;28;20042;-80
2022/12/03 09:16:35;;;;;;;22.92;7.82;;;2.50;99.90;;;;;;4999505;28;20045;-79
2022/12/03 09:19:00;;;;;;;21.35;7.85;;;2.50;99.90;;;;;;5015936;28;20037;-79
2022/12/03 09:21:26;;;;;;;15.43;7.30;;;2.80;99.90;;;;;;5016242;28;20500;-80
2022/12/03 09:23:52;;;;;;;19.27;8.98;;;2.50;99.90;;;;;;5017441;28;20037;-80
2022/12/03 09:26:18;;;;;;;19.55;8.32;;;2.50;99.90;;;;;;5015616;28;20062;-80
2022/12/03 09:28:45;;;;;;;17.80;7.25;;;2.50;99.90;;;;;;4999527;28;20144;-79
2022/12/03 09:31:11;;;;;;;19.55;7.78;;;2.50;99.90;;;;;;5015719;28;20220;-80
2022/12/03 09:33:37;;;;;;;24.98;9.07;;;2.50;99.90;;;;;;4999512;28;20127;-81
2022/12/03 09:36:03;;;;;;;14.48;7.40;;;2.50;99.90;;;;;;5015604;28;20136;-80
2022/12/03 09:38:28;;;;;;;21.85;8.07;;;2.50;99.90;;;;;;4999482;28;20046;-80
2022/12/03 09:41:03;;;;;;;18.60;7.28;;;2.50;99.90;;;;;;5016020;28;20049;-81
2022/12/03 09:43:33;;;;;;;21.23;8.50;;;2.50;99.90;;;;;;4999465;28;20037;-80
2022/12/03 09:45:59;;;;;;;20.17;7.68;;;2.50;99.90;;;;;;4999625;28;20488;-81
2022/12/03 09:48:25;;;;;;;19.17;7.53;;;3.70;99.90;;;;;;5015697;28;20041;-80
2022/12/03 09:50:51;;;;;;;18.05;7.90;;;2.60;99.90;;;;;;5033108;28;20034;-81
2022/12/03 09:53:20;;;;;;;19.63;8.48;;;2.60;99.90;;;;;;5015914;28;20103;-79
2022/12/03 09:55:47;;;;;;;19.52;9.32;;;2.60;99.90;;;;;;5015299;28;20041;-81
2022/12/03 10:20:21;;;;;;;16.02;7.55;;;2.60;99.90;;;;;;5039442;28;20120;-83
2022/12/03 10:22:50;;;;;;;20.67;8.07;;;2.60;99.90;;;;;;5005548;28;20037;-82
2022/12/03 10:25:19;;;;;;;21.67;7.80;;;2.70;99.90;;;;;;5032402;28;20060;-79
2022/12/03 10:28:25;;;;;;;23.08;9.20;;;2.60;99.90;;;;;;5041606;28;20048;-80
2022/12/03 10:30:54;;;;;;;18.50;8.20;;;3.00;99.90;;;;;;5019705;28;20049;-81
2022/12/03 10:33:20;;;;;;;18.27;7.25;;;2.60;99.90;;;;;;5041359;28;20148;-80
2022/12/03 10:35:46;;;;;;;18.40;8.07;;;2.60;99.90;;;;;;5041301;28;20543;-80
2022/12/03 10:38:21;;;;;;;22.33;7.85;;;4.10;99.90;;;;;;5024822;28;20041;-81
2022/12/03 10:40:47;;;;;;;21.67;8.23;;;2.50;99.90;;;;;;5024979;28;20044;-79
2022/12/03 10:43:22;;;;;;;24.02;7.93;;;2.50;99.90;;;;;;5024742;28;20033;-81
2022/12/03 10:46:10;;;;;;;23.48;8.10;;;2.60;99.90;;;;;;5024915;28;20045;-80
2022/12/03 10:48:37;;;;;;;17.88;7.95;;;2.60;99.90;;;;;;5024786;28;20047;-81
2022/12/03 10:51:15;;;;;;;17.00;7.35;;;2.60;99.90;;;;;;5041188;28;20044;-81
2022/12/03 10:53:41;;;;;;;19.48;8.95;;;2.60;99.90;;;;;;5024713;28;20080;-81
2022/12/03 10:56:13;;;;;;;17.35;8.40;;;2.60;99.90;;;;;;5041347;28;20131;-81
2022/12/03 10:58:40;;;;;;;19.20;8.27;;;2.60;99.90;;;;;;5041158;28;20107;-81
2022/12/03 11:01:17;;;;;;;18.58;7.93;;;3.40;99.90;;;;;;5024753;28;20447;-81
2022/12/03 11:03:43;;;;;;;23.42;8.80;;;2.60;99.90;;;;;;5024925;28;20040;-80
2022/12/03 11:06:21;;;;;;;17.67;8.48;;;2.60;99.90;;;;;;5025074;28;20530;-85
2022/12/03 11:08:49;;;;;;;29.67;10.07;;;2.60;99.90;;;;;;5041528;28;20041;-84
2022/12/03 11:11:26;;;;;;;22.38;8.52;;;2.70;99.90;;;;;;5024673;28;20043;-84
2022/12/03 11:14:00;;;;;;;17.20;7.88;;;2.70;99.90;;;;;;5040992;28;20086;-86
2022/12/03 11:16:38;;;;;;;18.27;8.27;;;2.70;99.90;;;;;;5024561;28;20045;-84
2022/12/03 11:19:37;;;;;;;17.08;7.63;;;2.70;99.90;;;;;;5041053;28;20041;-91
2022/12/03 11:22:08;;;;;;;19.55;8.50;;;2.80;99.90;;;;;;5040776;28;20095;-81
2022/12/03 11:24:36;;;;;;;14.52;7.80;;;2.90;99.90;;;;;;5024631;28;20056;-83
2022/12/03 11:27:01;;;;;;;22.55;8.85;;;2.80;99.00;;;;;;5022604;28;20094;-81
2022/12/03 11:30:07;;;;;;;21.05;8.93;;;2.90;99.90;;;;;;5038075;28;20455;-85
2022/12/03 11:32:42;;;;;;;23.92;8.75;;;3.00;99.90;;;;;;4978379;28;20042;-84
2022/12/03 11:35:23;;;;;;;15.50;7.20;;;3.20;99.90;;;;;;4978235;28;20496;-84
2022/12/03 11:37:48;;;;;;;18.70;8.00;;;2.90;99.90;;;;;;5025759;28;20135;-83
2022/12/03 11:40:17;;;;;;;22.02;8.65;;;2.90;99.90;;;;;;5021464;28;20199;-83
2022/12/03 11:42:45;;;;;;;18.75;8.40;;;2.90;99.90;;;;;;5021480;28;20045;-83
2022/12/03 11:45:29;;;;;;;21.25;8.15;;;2.90;99.90;;;;;;5021328;28;20129;-84
2022/12/03 11:47:57;;;;;;;15.48;7.97;;;2.90;99.90;;;;;;5037643;28;20049;-84
2022/12/03 11:50:33;;;;;;;25.25;9.20;;;2.90;99.90;;;;;;5021338;28;20048;-81
2022/12/03 11:53:12;;;;;;;21.15;8.48;;;2.80;99.90;;;;;;5020919;28;20144;-84
2022/12/03 11:55:43;;;;;;;19.83;8.65;;;2.80;99.90;;;;;;5037393;28;20164;-84
2022/12/03 11:58:29;;;;;;;19.13;8.02;;;2.90;99.90;;;;;;5037429;28;20041;-84
2022/12/03 12:00:59;;;;;;;18.42;8.43;;;2.90;99.90;;;;;;5037936;28;20182;-84
2022/12/03 12:03:26;;;;;;;20.13;9.05;;;4.40;99.90;;;;;;5020813;28;20502;-84
2022/12/03 12:06:07;;;;;;;22.77;8.80;;;3.00;99.90;;;;;;5020825;28;20040;-84
2022/12/03 12:08:39;;;;;;;24.95;9.32;;;3.10;99.90;;;;;;5020795;28;20044;-84
2022/12/03 12:11:19;;;;;;;13.90;7.40;;;3.10;99.90;;;;;;5037136;28;20079;-85
2022/12/03 12:13:53;;;;;;;22.50;8.25;;;3.10;99.90;;;;;;5037137;28;20033;-85
2022/12/03 12:16:48;;;;;;;22.88;8.48;;;3.20;99.90;;;;;;5020761;28;20079;-82
2022/12/03 12:19:35;;;;;;;19.80;7.97;;;3.10;98.50;;;;;;5020983;28;20072;-83
2022/12/03 12:22:24;;;;;;;20.58;9.02;;;3.20;99.90;;;;;;5020773;28;20127;-85
2022/12/03 12:25:04;;;;;;;21.65;7.55;;;3.10;99.30;;;;;;5020350;28;20052;-87
2022/12/03 12:27:43;;;;;;;20.95;8.55;;;3.20;99.90;;;;;;5020664;28;20045;-84
2022/12/03 12:30:20;;;;;;;16.27;7.47;;;3.20;99.90;;;;;;5037045;28;20045;-84
2022/12/03 12:33:18;;;;;;;23.85;9.23;;;3.20;99.80;;;;;;5020578;28;20544;-85
2022/12/03 12:35:44;;;;;;;16.20;7.35;;;3.30;99.80;;;;;;5020658;28;20507;-84
2022/12/03 12:38:15;;;;;;;20.65;7.28;;;3.30;99.80;;;;;;5036056;28;20041;-84
2022/12/03 12:40:44;;;;;;;14.05;7.72;;;3.40;99.90;;;;;;5036731;28;20499;-85
2022/12/03 12:43:10;;;;;;;17.08;7.78;;;3.40;99.40;;;;;;5020198;28;20127;-85
2022/12/03 12:45:39;;;;;;;22.38;7.95;;;3.30;99.60;;;;;;5020269;28;20076;-83
2022/12/03 12:48:25;;;;;;;21.67;8.52;;;3.30;98.40;;;;;;5036387;28;20041;-82
2022/12/03 12:51:12;;;;;;;22.85;7.68;;;3.30;97.40;;;;;;5020209;28;20040;-82
2022/12/03 12:53:41;;;;;;;15.18;6.93;;;3.20;97.90;;;;;;5036500;28;20533;-82
2022/12/03 12:56:26;;;;;;;20.15;8.20;;;3.20;96.60;;;;;;5019671;28;20072;-82
2022/12/03 12:58:53;;;;;;;17.55;8.40;;;3.20;98.40;;;;;;5036312;28;20071;-82
2022/12/03 13:01:25;;;;;;;23.45;8.95;;;3.10;92.60;;;;;;5020014;28;20064;-84
2022/12/03 13:03:52;;;;;;;17.85;8.20;;;3.10;94.40;;;;;;5036226;28;20075;-82
2022/12/03 13:06:26;;;;;;;16.55;6.65;;;4.20;96.40;;;;;;5036549;28;20073;-85
2022/12/03 13:08:52;;;;;;;15.73;7.55;;;3.20;96.90;;;;;;5020082;28;20458;-84
2022/12/03 13:11:24;;;;;;;17.90;8.18;;;3.30;97.20;;;;;;5020218;28;20094;-85
2022/12/03 13:13:50;;;;;;;13.05;7.20;;;3.30;98.20;;;;;;5019981;28;20372;-84
2022/12/03 13:16:27;;;;;;;18.08;8.13;;;3.30;95.70;;;;;;5019314;28;20080;-85
2022/12/03 13:18:55;;;;;;;18.05;7.78;;;3.40;93.90;;;;;;5019398;28;20052;-85
2022/12/03 13:21:39;;;;;;;21.33;8.70;;;3.30;96.10;;;;;;5019216;28;20041;-84
2022/12/03 13:24:31;;;;;;;20.92;8.27;;;3.20;96.80;;;;;;5035878;28;20107;-86
2022/12/03 13:27:21;;;;;;;24.83;8.20;;;3.20;97.40;;;;;;5033959;28;20060;-84
2022/12/03 13:30:13;;;;;;;15.40;7.20;;;3.10;97.90;;;;;;5029788;28;20140;-82
2022/12/03 13:32:40;;;;;;;16.05;7.22;;;3.10;98.60;;;;;;5035221;28;20053;-82
2022/12/03 13:35:09;;;;;;;19.48;8.35;;;3.10;97.60;;;;;;5035805;28;20036;-81
2022/12/03 13:37:36;;;;;;;19.08;7.63;;;2.90;97.30;;;;;;5019077;28;20041;-89